Time,TemperatureF,DewpointF,PressureIn,WindDirection,WindDirectionDegrees,WindSpeedMPH,WindSpeedGustMPH,Humidity,HourlyPrecipIn,Conditions,Clouds,dailyrainin,SoftwareType,DateUTC
2013-09-10 00:00:00,66.6,60.9,30.04,WSW,250,3.0,8.0,82,0.00,,CLR,0.00,VWS V14.01,2013-09-10 04:00:00,
2013-09-10 00:01:00,66.6,60.9,30.03,West,259,3.0,8.0,82,0.00,,CLR,0.00,VWS V14.01,2013-09-10 04:01:00,
2013-09-10 00:02:00,66.6,60.9,30.04,West,269,3.0,8.0,82,0.00,,CLR,0.00,VWS V14.01,2013-09-10 04:02:00,
2013-09-10 00:03:00,66.6,60.9,30.04,WSW,238,4.0,4.0,82,0.00,,CLR,0.00,VWS V14.01,2013-09-10 04:03:00,
2013-09-10 00:06:00,66.6,60.9,30.04,WSW,240,5.0,6.0,82,0.00,,CLR,0.00,VWS V14.01,2013-09-10 04:06:00,
2013-09-10 00:12:00,66.7,61.0,30.04,WSW,253,3.0,7.0,82,0.00,,CLR,0.00,VWS V14.01,2013-09-10 04:12:00,
2013-09-10 00:17:00,66.7,61.4,30.04,WSW,239,5.0,7.0,83,0.00,,CLR,0.00,VWS V14.01,2013-09-10 04:17:00,
2013-09-10 00:22:00,66.7,61.4,30.04,SW,225,4.0,7.0,83,0.00,,CLR,0.00,VWS V14.01,2013-09-10 04:22:00,
2013-09-10 00:27:00,66.5,61.2,30.04,SW,231,3.0,7.0,83,0.00,,CLR,0.00,VWS V14.01,2013-09-10 04:27:00,
2013-09-10 00:30:00,66.4,61.1,30.04,WSW,242,2.0,7.0,83,0.00,,CLR,0.00,VWS V14.01,2013-09-10 04:30:00,
2013-09-10 00:32:00,66.4,61.1,30.05,SW,233,3.0,7.0,83,0.00,,CLR,0.00,VWS V14.01,2013-09-10 04:32:00,
2013-09-10 00:37:00,66.4,61.1,30.05,SW,235,3.0,5.0,83,0.00,,CLR,0.00,VWS V14.01,2013-09-10 04:37:00,
2013-09-10 00:42:00,66.1,61.1,30.04,WSW,238,3.0,5.0,84,0.00,,CLR,0.00,VWS V14.01,2013-09-10 04:42:00,
2013-09-10 00:47:00,65.9,60.9,30.04,SW,236,4.0,5.0,84,0.00,,CLR,0.00,VWS V14.01,2013-09-10 04:47:00,
2013-09-10 00:52:00,65.9,60.9,30.04,WSW,245,2.0,5.0,84,0.00,,CLR,0.00,VWS V14.01,2013-09-10 04:52:00,
2013-09-10 00:58:00,65.8,61.2,30.04,WSW,238,2.0,5.0,85,0.00,,CLR,0.00,VWS V14.01,2013-09-10 04:58:00,
2013-09-10 01:00:00,65.7,61.1,30.04,WSW,248,2.0,5.0,85,0.00,,CLR,0.00,VWS V14.01,2013-09-10 05:00:00,
2013-09-10 01:03:00,65.7,61.1,30.04,WSW,254,2.0,5.0,85,0.00,,CLR,0.00,VWS V14.01,2013-09-10 05:03:00,
2013-09-10 01:08:00,65.7,61.1,30.05,SW,224,4.0,5.0,85,0.00,,CLR,0.00,VWS V14.01,2013-09-10 05:08:00,
2013-09-10 01:13:00,65.7,61.1,30.04,WSW,238,3.0,5.0,85,0.00,,CLR,0.00,VWS V14.01,2013-09-10 05:13:00,
2013-09-10 01:18:00,65.9,61.3,30.04,SW,226,4.0,5.0,85,0.00,,CLR,0.00,VWS V14.01,2013-09-10 05:18:00,
2013-09-10 01:23:00,66.1,61.5,30.04,SW,233,4.0,5.0,85,0.00,,CLR,0.00,VWS V14.01,2013-09-10 05:23:00,
2013-09-10 01:28:00,66.3,61.7,30.04,WSW,245,3.0,5.0,85,0.00,,CLR,0.00,VWS V14.01,2013-09-10 05:28:00,
2013-09-10 01:30:00,66.4,61.8,30.04,WSW,243,4.0,5.0,85,0.00,,CLR,0.00,VWS V14.01,2013-09-10 05:30:00,
2013-09-10 01:33:00,66.5,61.9,30.04,WSW,242,3.0,4.0,85,0.00,,CLR,0.00,VWS V14.01,2013-09-10 05:33:00,
2013-09-10 01:38:00,66.6,62.0,30.04,WSW,238,2.0,5.0,85,0.00,,CLR,0.00,VWS V14.01,2013-09-10 05:38:00,
2013-09-10 01:44:00,66.7,62.0,30.04,WSW,239,3.0,5.0,85,0.00,,CLR,0.00,VWS V14.01,2013-09-10 05:44:00,
2013-09-10 01:49:00,66.8,62.2,30.04,SW,236,4.0,5.0,85,0.00,,CLR,0.00,VWS V14.01,2013-09-10 05:49:00,
2013-09-10 01:54:00,66.9,62.2,30.04,WSW,242,5.0,5.0,85,0.00,,CLR,0.00,VWS V14.01,2013-09-10 05:54:00,
2013-09-10 01:59:00,67.0,62.3,30.04,WSW,239,6.0,6.0,85,0.00,,CLR,0.00,VWS V14.01,2013-09-10 05:59:00,
2013-09-10 02:00:00,67.1,62.1,30.04,WSW,240,3.0,6.0,84,0.00,,CLR,0.00,VWS V14.01,2013-09-10 06:00:00,
2013-09-10 02:04:00,67.2,62.2,30.04,WSW,242,4.0,6.0,84,0.00,,CLR,0.00,VWS V14.01,2013-09-10 06:04:00,
2013-09-10 02:09:00,67.3,62.3,30.04,WSW,245,4.0,6.0,84,0.00,,CLR,0.00,VWS V14.01,2013-09-10 06:09:00,
2013-09-10 02:14:00,67.3,62.3,30.04,WSW,250,3.0,6.0,84,0.00,,CLR,0.00,VWS V14.01,2013-09-10 06:14:00,
2013-09-10 02:19:00,67.4,62.7,30.04,WSW,250,3.0,6.0,85,0.00,,CLR,0.00,VWS V14.01,2013-09-10 06:19:00,
2013-09-10 02:24:00,67.6,62.6,30.04,WSW,254,3.0,6.0,84,0.00,,CLR,0.00,VWS V14.01,2013-09-10 06:24:00,
2013-09-10 02:30:00,67.7,62.7,30.04,WSW,243,4.0,6.0,84,0.00,,CLR,0.00,VWS V14.01,2013-09-10 06:30:00,
2013-09-10 02:35:00,67.9,62.9,30.04,WSW,242,3.0,5.0,84,0.00,,CLR,0.00,VWS V14.01,2013-09-10 06:35:00,
2013-09-10 02:40:00,67.9,62.9,30.04,WSW,242,4.0,5.0,84,0.00,,CLR,0.00,VWS V14.01,2013-09-10 06:40:00,
2013-09-10 02:45:00,67.9,62.9,30.04,SW,236,4.0,6.0,84,0.00,,BKN080,0.00,VWS V14.01,2013-09-10 06:45:00,
2013-09-10 02:50:00,67.9,62.9,30.03,SW,236,3.0,6.0,84,0.00,,BKN080,0.00,VWS V14.01,2013-09-10 06:50:00,
2013-09-10 02:55:00,68.0,63.0,30.04,WSW,239,4.0,6.0,84,0.00,,BKN080,0.00,VWS V14.01,2013-09-10 06:55:00,
2013-09-10 03:00:00,68.1,63.1,30.04,WSW,243,3.0,6.0,84,0.00,,BKN080,0.00,VWS V14.01,2013-09-10 07:00:00,
2013-09-10 03:05:00,68.1,63.1,30.03,WSW,242,4.0,6.0,84,0.00,,BKN080,0.00,VWS V14.01,2013-09-10 07:05:00,
2013-09-10 03:10:00,68.1,63.1,30.04,WSW,256,1.0,6.0,84,0.00,,BKN080,0.00,VWS V14.01,2013-09-10 07:10:00,
2013-09-10 03:15:00,68.1,63.1,30.03,WSW,247,3.0,6.0,84,0.00,,BKN080,0.00,VWS V14.01,2013-09-10 07:15:00,
2013-09-10 03:21:00,68.1,63.1,30.03,SW,226,2.0,6.0,84,0.00,,BKN080,0.00,VWS V14.01,2013-09-10 07:21:00,
2013-09-10 03:26:00,68.1,63.1,30.03,SSW,208,2.0,6.0,84,0.00,,BKN080,0.00,VWS V14.01,2013-09-10 07:26:00,
2013-09-10 03:30:00,68.2,63.5,30.03,SW,226,3.0,6.0,85,0.00,,CLR,0.00,VWS V14.01,2013-09-10 07:30:00,
2013-09-10 03:31:00,68.2,63.5,30.03,SW,221,3.0,6.0,85,0.00,,BKN080,0.00,VWS V14.01,2013-09-10 07:31:00,
2013-09-10 03:36:00,68.1,63.4,30.02,WSW,239,3.0,4.0,85,0.00,,BKN080,0.00,VWS V14.01,2013-09-10 07:36:00,
2013-09-10 03:41:00,68.1,63.4,30.02,WSW,256,2.0,4.0,85,0.00,,BKN080,0.00,VWS V14.01,2013-09-10 07:41:00,
2013-09-10 03:46:00,68.2,63.5,30.02,SW,231,3.0,4.0,85,0.00,,OVC090,0.00,VWS V14.01,2013-09-10 07:46:00,
2013-09-10 03:51:00,68.2,63.5,30.02,SW,218,3.0,4.0,85,0.00,,OVC090,0.00,VWS V14.01,2013-09-10 07:51:00,
2013-09-10 03:56:00,68.3,63.6,30.02,SW,216,3.0,4.0,85,0.00,,OVC090,0.00,VWS V14.01,2013-09-10 07:56:00,
2013-09-10 04:00:00,68.6,64.2,30.02,WSW,239,2.0,5.0,86,0.00,,CLR,0.00,VWS V14.01,2013-09-10 08:00:00,
2013-09-10 04:01:00,68.5,64.2,30.02,SW,232,3.0,5.0,86,0.00,,OVC090,0.00,VWS V14.01,2013-09-10 08:01:00,
2013-09-10 04:06:00,68.6,64.2,30.02,SW,229,3.0,3.0,86,0.00,,OVC090,0.00,VWS V14.01,2013-09-10 08:06:00,
2013-09-10 04:12:00,68.8,64.1,30.02,SW,218,3.0,4.0,85,0.00,,OVC090,0.00,VWS V14.01,2013-09-10 08:12:00,
2013-09-10 04:17:00,68.9,64.2,30.02,SW,232,3.0,4.0,85,0.00,,OVC090,0.00,VWS V14.01,2013-09-10 08:17:00,
2013-09-10 04:22:00,68.9,64.6,30.02,WSW,243,3.0,4.0,86,0.00,,OVC090,0.00,VWS V14.01,2013-09-10 08:22:00,
2013-09-10 04:27:00,68.9,64.6,30.02,WSW,240,2.0,4.0,86,0.00,,OVC090,0.00,VWS V14.01,2013-09-10 08:27:00,
2013-09-10 04:30:00,69.1,64.7,30.02,WSW,253,2.0,4.0,86,0.00,,CLR,0.00,VWS V14.01,2013-09-10 08:30:00,
2013-09-10 04:32:00,69.0,64.6,30.02,WSW,247,2.0,4.0,86,0.00,,OVC090,0.00,VWS V14.01,2013-09-10 08:32:00,
2013-09-10 04:37:00,69.2,64.5,30.02,WSW,242,2.0,3.0,85,0.00,,OVC090,0.00,VWS V14.01,2013-09-10 08:37:00,
2013-09-10 04:42:00,69.4,65.0,30.02,WSW,238,2.0,5.0,86,0.00,,OVC090,0.00,VWS V14.01,2013-09-10 08:42:00,
2013-09-10 04:47:00,69.5,64.8,30.01,WSW,242,3.0,5.0,85,0.00,,BKN090,0.00,VWS V14.01,2013-09-10 08:47:00,
2013-09-10 04:52:00,69.6,65.2,30.01,SW,236,4.0,5.0,86,0.00,,BKN090,0.00,VWS V14.01,2013-09-10 08:52:00,
2013-09-10 04:58:00,70.0,65.3,30.01,WSW,245,5.0,6.0,85,0.00,,BKN090,0.00,VWS V14.01,2013-09-10 08:58:00,
2013-09-10 05:00:00,70.4,65.3,30.01,WSW,246,4.0,8.0,84,0.00,,CLR,0.00,VWS V14.01,2013-09-10 09:00:00,
2013-09-10 05:03:00,70.4,65.3,30.00,WSW,242,5.0,8.0,84,0.00,,BKN090,0.00,VWS V14.01,2013-09-10 09:03:00,
2013-09-10 05:08:00,70.6,65.5,30.01,WSW,253,2.0,8.0,84,0.00,,BKN090,0.00,VWS V14.01,2013-09-10 09:08:00,
2013-09-10 05:13:00,70.6,65.5,30.01,WSW,246,3.0,8.0,84,0.00,,BKN090,0.00,VWS V14.01,2013-09-10 09:13:00,
2013-09-10 05:18:00,70.6,65.5,30.00,WSW,241,2.0,8.0,84,0.00,,BKN090,0.00,VWS V14.01,2013-09-10 09:18:00,
2013-09-10 05:23:00,70.6,65.5,30.00,WSW,252,3.0,8.0,84,0.00,,BKN090,0.00,VWS V14.01,2013-09-10 09:23:00,
2013-09-10 05:28:00,70.8,65.4,30.00,WSW,245,3.0,8.0,83,0.00,,BKN090,0.00,VWS V14.01,2013-09-10 09:28:00,
2013-09-10 05:30:00,70.8,65.7,30.00,West,260,3.0,8.0,84,0.00,,CLR,0.00,VWS V14.01,2013-09-10 09:30:00,
2013-09-10 05:33:00,70.8,65.7,30.00,SW,229,5.0,6.0,84,0.00,,BKN090,0.00,VWS V14.01,2013-09-10 09:33:00,
2013-09-10 05:38:00,71.0,65.6,30.00,West,274,2.0,7.0,83,0.00,,BKN090,0.00,VWS V14.01,2013-09-10 09:38:00,
2013-09-10 05:44:00,71.1,65.7,30.00,WSW,256,4.0,7.0,83,0.00,,BKN090,0.00,VWS V14.01,2013-09-10 09:44:00,
2013-09-10 05:49:00,71.3,65.9,30.00,WSW,239,5.0,7.0,83,0.00,,BKN090,0.00,VWS V14.01,2013-09-10 09:49:00,
2013-09-10 05:54:00,71.5,66.1,30.00,West,262,3.0,8.0,83,0.00,,BKN090,0.00,VWS V14.01,2013-09-10 09:54:00,
2013-09-10 05:59:00,71.5,66.1,30.01,WSW,242,3.0,8.0,83,0.00,,BKN090,0.00,VWS V14.01,2013-09-10 09:59:00,
2013-09-10 06:00:00,71.5,66.1,30.01,WSW,248,6.0,8.0,83,0.00,,CLR,0.00,VWS V14.01,2013-09-10 10:00:00,
2013-09-10 06:04:00,71.5,66.1,30.01,West,260,3.0,6.0,83,0.00,,BKN090,0.00,VWS V14.01,2013-09-10 10:04:00,
2013-09-10 06:09:00,71.4,66.0,30.01,West,259,3.0,6.0,83,0.00,,BKN090,0.00,VWS V14.01,2013-09-10 10:09:00,
2013-09-10 06:14:00,71.3,65.9,30.01,West,263,3.0,7.0,83,0.00,,BKN090,0.00,VWS V14.01,2013-09-10 10:14:00,
2013-09-10 06:19:00,71.2,65.8,30.00,WSW,246,3.0,7.0,83,0.00,,BKN090,0.00,VWS V14.01,2013-09-10 10:19:00,
2013-09-10 06:24:00,71.1,65.7,30.01,West,264,3.0,7.0,83,0.00,,BKN090,0.00,VWS V14.01,2013-09-10 10:24:00,
2013-09-10 06:29:00,71.1,65.7,30.00,West,262,4.0,7.0,83,0.00,,BKN090,0.00,VWS V14.01,2013-09-10 10:29:00,
2013-09-10 06:30:00,71.1,66.0,30.00,WSW,241,4.0,7.0,84,0.00,,CLR,0.00,VWS V14.01,2013-09-10 10:30:00,
2013-09-10 06:35:00,71.1,66.0,30.00,West,260,2.0,5.0,84,0.00,,BKN090,0.00,VWS V14.01,2013-09-10 10:35:00,
2013-09-10 06:40:00,71.1,66.0,30.00,WSW,249,3.0,5.0,84,0.00,,BKN090,0.00,VWS V14.01,2013-09-10 10:40:00,
2013-09-10 06:45:00,71.0,66.3,30.01,WSW,256,2.0,5.0,85,0.00,,BKN120,0.00,VWS V14.01,2013-09-10 10:45:00,
2013-09-10 06:50:00,70.9,66.2,30.02,WSW,256,3.0,5.0,85,0.00,,BKN120,0.00,VWS V14.01,2013-09-10 10:50:00,
2013-09-10 06:55:00,71.0,66.3,30.02,WSW,257,2.0,6.0,85,0.00,,BKN120,0.00,VWS V14.01,2013-09-10 10:55:00,
2013-09-10 07:00:00,71.2,66.5,30.03,West,276,3.0,6.0,85,0.00,,BKN120,0.00,VWS V14.01,2013-09-10 11:00:00,
2013-09-10 07:05:00,71.4,66.7,30.03,SW,236,5.0,6.0,85,0.00,,BKN120,0.00,VWS V14.01,2013-09-10 11:05:00,
2013-09-10 07:10:00,71.4,66.7,30.03,WSW,250,2.0,6.0,85,0.00,,BKN120,0.00,VWS V14.01,2013-09-10 11:10:00,
2013-09-10 07:16:00,71.3,66.9,30.02,West,267,0.0,6.0,86,0.00,,BKN120,0.00,VWS V14.01,2013-09-10 11:16:00,
2013-09-10 07:21:00,71.0,66.9,30.02,West,281,2.0,6.0,87,0.01,,BKN120,0.01,VWS V14.01,2013-09-10 11:21:00,
2013-09-10 07:26:00,70.5,67.1,30.02,West,260,2.0,6.0,89,0.01,,BKN120,0.01,VWS V14.01,2013-09-10 11:26:00,
2013-09-10 07:30:00,70.0,66.9,30.01,WSW,243,2.0,6.0,90,0.01,,CLR,0.01,VWS V14.01,2013-09-10 11:30:00,
2013-09-10 07:31:00,70.1,67.0,30.01,SW,236,2.0,6.0,90,0.01,,BKN120,0.01,VWS V14.01,2013-09-10 11:31:00,
2013-09-10 07:36:00,69.8,67.1,30.00,WSW,242,3.0,3.0,91,0.01,,BKN120,0.01,VWS V14.01,2013-09-10 11:36:00,
2013-09-10 07:41:00,69.6,67.2,30.00,West,266,3.0,4.0,92,0.01,,BKN120,0.01,VWS V14.01,2013-09-10 11:41:00,
2013-09-10 07:46:00,69.5,67.1,29.99,WSW,250,2.0,5.0,92,0.02,,BKN110,0.02,VWS V14.01,2013-09-10 11:46:00,
2013-09-10 07:51:00,69.4,67.3,30.00,West,259,2.0,5.0,93,0.03,,BKN110,0.03,VWS V14.01,2013-09-10 11:51:00,
2013-09-10 07:57:00,69.3,67.2,30.01,West,259,2.0,5.0,93,0.03,,BKN110,0.03,VWS V14.01,2013-09-10 11:57:00,
2013-09-10 08:00:00,69.1,67.0,30.02,West,266,2.0,5.0,93,0.03,,CLR,0.03,VWS V14.01,2013-09-10 12:00:00,
2013-09-10 08:02:00,69.1,67.0,30.02,WSW,248,2.0,5.0,93,0.03,,-RA,0.03,VWS V14.01,2013-09-10 12:02:00,
2013-09-10 08:07:00,69.0,67.2,30.03,WSW,242,1.0,3.0,94,0.03,,-RA,0.03,VWS V14.01,2013-09-10 12:07:00,
2013-09-10 08:12:00,69.0,67.2,30.02,WSW,238,2.0,3.0,94,0.03,,-RA,0.03,VWS V14.01,2013-09-10 12:12:00,
2013-09-10 08:17:00,69.0,67.2,30.02,WSW,242,0.0,3.0,94,0.03,,BKN110,0.03,VWS V14.01,2013-09-10 12:17:00,
2013-09-10 08:22:00,69.0,67.2,30.03,WSW,242,0.0,3.0,94,0.03,,BKN110,0.03,VWS V14.01,2013-09-10 12:22:00,
2013-09-10 08:27:00,69.1,67.6,30.04,SSE,157,3.0,4.0,95,0.03,,BKN110,0.03,VWS V14.01,2013-09-10 12:27:00,
2013-09-10 08:30:00,69.1,67.3,30.05,ENE,70,2.0,7.0,94,0.03,,CLR,0.03,VWS V14.01,2013-09-10 12:30:00,
2013-09-10 08:32:00,69.1,67.3,30.05,East,89,2.0,7.0,94,0.03,,-RA,0.03,VWS V14.01,2013-09-10 12:32:00,
2013-09-10 08:37:00,68.7,66.6,30.05,East,81,3.0,9.0,93,0.02,,-RA,0.03,VWS V14.01,2013-09-10 12:37:00,
2013-09-10 08:42:00,68.3,66.5,30.04,NE,34,1.0,9.0,94,0.02,,-RA,0.03,VWS V14.01,2013-09-10 12:42:00,
2013-09-10 08:48:00,68.4,66.6,30.04,SW,223,4.0,9.0,94,0.02,,-RA,0.03,VWS V14.01,2013-09-10 12:48:00,
2013-09-10 08:53:00,68.6,66.8,30.04,ESE,121,3.0,9.0,94,0.02,,-RA,0.03,VWS V14.01,2013-09-10 12:53:00,
2013-09-10 08:58:00,68.7,66.9,30.05,SE,132,1.0,9.0,94,0.02,,-RA,0.03,VWS V14.01,2013-09-10 12:58:00,
2013-09-10 09:00:00,68.8,66.7,30.05,SE,129,2.0,9.0,93,0.02,,CLR,0.03,VWS V14.01,2013-09-10 13:00:00,
2013-09-10 09:03:00,68.8,66.7,30.05,SE,145,2.0,2.0,93,0.00,,-RA,0.03,VWS V14.01,2013-09-10 13:03:00,
2013-09-10 09:08:00,68.6,66.5,30.05,SE,139,1.0,6.0,93,0.00,,-RA,0.03,VWS V14.01,2013-09-10 13:08:00,
2013-09-10 09:13:00,68.4,66.3,30.05,SW,215,1.0,6.0,93,0.00,,-RA,0.03,VWS V14.01,2013-09-10 13:13:00,
2013-09-10 09:18:00,68.5,66.4,30.04,SW,218,2.0,6.0,93,0.00,,-RA,0.03,VWS V14.01,2013-09-10 13:18:00,
2013-09-10 09:23:00,68.8,66.7,30.04,WSW,238,2.0,6.0,93,0.00,,-RA,0.03,VWS V14.01,2013-09-10 13:23:00,
2013-09-10 09:28:00,69.2,67.1,30.04,SW,217,1.0,6.0,93,0.00,,-RA,0.03,VWS V14.01,2013-09-10 13:28:00,
2013-09-10 09:30:00,69.5,67.1,30.04,SSW,211,1.0,6.0,92,0.00,,CLR,0.03,VWS V14.01,2013-09-10 13:30:00,
2013-09-10 09:33:00,69.6,67.2,30.04,SW,229,1.0,2.0,92,0.00,,-RA,0.03,VWS V14.01,2013-09-10 13:33:00,
2013-09-10 09:39:00,69.9,67.5,30.04,SSW,205,0.0,2.0,92,0.00,,-RA,0.03,VWS V14.01,2013-09-10 13:39:00,
2013-09-10 09:44:00,70.1,67.4,30.04,East,94,3.0,5.0,91,0.00,,-RA,0.03,VWS V14.01,2013-09-10 13:44:00,
2013-09-10 09:49:00,70.2,67.4,30.04,SE,141,1.0,5.0,91,0.00,,BKN085,0.03,VWS V14.01,2013-09-10 13:49:00,
2013-09-10 09:54:00,70.3,67.2,30.04,SSE,161,1.0,7.0,90,0.00,,BKN085,0.03,VWS V14.01,2013-09-10 13:54:00,
2013-09-10 09:59:00,70.2,67.1,30.04,SW,233,3.0,7.0,90,0.00,,BKN085,0.03,VWS V14.01,2013-09-10 13:59:00,
2013-09-10 10:00:00,70.2,67.4,30.04,WSW,242,1.0,7.0,91,0.00,,CLR,0.03,VWS V14.01,2013-09-10 14:00:00,
2013-09-10 10:04:00,70.3,67.6,30.04,WSW,242,0.0,1.0,91,0.00,,BKN085,0.03,VWS V14.01,2013-09-10 14:04:00,
2013-09-10 10:09:00,70.7,67.9,30.04,WSW,242,0.0,1.0,91,0.00,,BKN085,0.03,VWS V14.01,2013-09-10 14:09:00,
2013-09-10 10:14:00,71.3,68.5,30.04,SE,136,0.0,1.0,91,0.00,,BKN085,0.03,VWS V14.01,2013-09-10 14:14:00,
2013-09-10 10:19:00,72.0,68.9,30.03,SSW,210,0.0,1.0,90,0.00,,BKN085,0.03,VWS V14.01,2013-09-10 14:19:00,
2013-09-10 10:24:00,72.7,69.3,30.04,SE,129,0.0,2.0,89,0.00,,BKN085,0.03,VWS V14.01,2013-09-10 14:24:00,
2013-09-10 10:30:00,73.3,69.9,30.03,East,101,1.0,2.0,89,0.00,,BKN085,0.03,VWS V14.01,2013-09-10 14:30:00,
2013-09-10 10:35:00,73.6,69.8,30.03,SE,131,1.0,2.0,88,0.00,,BKN085,0.03,VWS V14.01,2013-09-10 14:35:00,
2013-09-10 10:40:00,74.4,70.9,30.03,WSW,238,2.0,3.0,89,0.00,,BKN085,0.03,VWS V14.01,2013-09-10 14:40:00,
2013-09-10 10:45:00,75.6,71.5,30.03,WSW,244,3.0,6.0,87,0.00,,CLR,0.03,VWS V14.01,2013-09-10 14:45:00,
2013-09-10 10:50:00,76.5,72.3,30.03,WSW,243,3.0,6.0,87,0.00,,CLR,0.03,VWS V14.01,2013-09-10 14:50:00,
2013-09-10 10:55:00,77.2,72.3,30.02,WSW,245,3.0,7.0,85,0.00,,CLR,0.03,VWS V14.01,2013-09-10 14:55:00,
2013-09-10 11:00:00,77.6,72.0,30.02,WSW,239,3.0,7.0,83,0.00,,CLR,0.03,VWS V14.01,2013-09-10 15:00:00,
2013-09-10 11:05:00,78.0,72.4,30.02,WSW,240,5.0,6.0,83,0.00,,CLR,0.03,VWS V14.01,2013-09-10 15:05:00,
2013-09-10 11:10:00,78.3,72.7,30.02,WSW,258,3.0,7.0,83,0.00,,CLR,0.03,VWS V14.01,2013-09-10 15:10:00,
2013-09-10 11:15:00,78.6,72.7,30.02,WSW,242,4.0,7.0,82,0.00,,CLR,0.03,VWS V14.01,2013-09-10 15:15:00,
2013-09-10 11:20:00,78.9,72.9,30.02,WSW,254,3.0,7.0,82,0.00,,CLR,0.03,VWS V14.01,2013-09-10 15:20:00,
2013-09-10 11:25:00,79.2,72.9,30.02,West,259,4.0,7.0,81,0.00,,CLR,0.03,VWS V14.01,2013-09-10 15:25:00,
2013-09-10 11:30:00,79.3,73.0,30.02,WSW,248,3.0,7.0,81,0.00,,CLR,0.03,VWS V14.01,2013-09-10 15:30:00,
2013-09-10 11:31:00,79.3,73.0,30.02,WSW,245,2.0,7.0,81,0.00,,CLR,0.03,VWS V14.01,2013-09-10 15:31:00,
2013-09-10 11:36:00,79.4,73.1,30.02,West,263,4.0,5.0,81,0.00,,CLR,0.03,VWS V14.01,2013-09-10 15:36:00,
2013-09-10 11:41:00,79.8,73.1,30.02,WSW,246,4.0,6.0,80,0.00,,CLR,0.03,VWS V14.01,2013-09-10 15:41:00,
2013-09-10 11:46:00,80.2,73.8,30.02,SW,236,3.0,6.0,81,0.00,,CLR,0.03,VWS V14.01,2013-09-10 15:46:00,
2013-09-10 11:51:00,80.7,74.0,30.02,West,264,2.0,6.0,80,0.00,,CLR,0.03,VWS V14.01,2013-09-10 15:51:00,
2013-09-10 11:56:00,81.2,73.7,30.02,WSW,242,3.0,6.0,78,0.00,,CLR,0.03,VWS V14.01,2013-09-10 15:56:00,
2013-09-10 12:00:00,81.8,73.9,30.02,WSW,249,2.0,7.0,77,0.00,,CLR,0.03,VWS V14.01,2013-09-10 16:00:00,
2013-09-10 12:01:00,81.6,73.7,30.02,WSW,253,2.0,7.0,77,0.00,,CLR,0.03,VWS V14.01,2013-09-10 16:01:00,
2013-09-10 12:06:00,82.1,74.2,30.02,WSW,248,2.0,4.0,77,0.00,,CLR,0.03,VWS V14.01,2013-09-10 16:06:00,
2013-09-10 12:12:00,82.5,74.9,30.02,WSW,242,1.0,4.0,78,0.00,,CLR,0.03,VWS V14.01,2013-09-10 16:12:00,
2013-09-10 12:17:00,82.9,74.2,30.02,WSW,240,4.0,6.0,75,0.00,,CLR,0.03,VWS V14.01,2013-09-10 16:17:00,
2013-09-10 12:22:00,83.3,74.9,30.01,WSW,248,3.0,6.0,76,0.00,,CLR,0.03,VWS V14.01,2013-09-10 16:22:00,
2013-09-10 12:27:00,83.5,74.3,30.01,SW,226,3.0,6.0,74,0.00,,CLR,0.03,VWS V14.01,2013-09-10 16:27:00,
2013-09-10 12:30:00,83.8,74.6,30.01,SW,233,3.0,6.0,74,0.00,,CLR,0.03,VWS V14.01,2013-09-10 16:30:00,
2013-09-10 12:32:00,83.7,74.5,30.01,WSW,244,3.0,6.0,74,0.00,,CLR,0.03,VWS V14.01,2013-09-10 16:32:00,
2013-09-10 12:37:00,84.2,75.0,30.01,SSW,205,2.0,4.0,74,0.00,,CLR,0.03,VWS V14.01,2013-09-10 16:37:00,
2013-09-10 12:42:00,84.5,74.9,30.01,WSW,248,2.0,5.0,73,0.00,,CLR,0.03,VWS V14.01,2013-09-10 16:42:00,
2013-09-10 12:47:00,84.5,74.9,30.01,SW,224,4.0,6.0,73,0.00,,CLR,0.03,VWS V14.01,2013-09-10 16:47:00,
2013-09-10 12:52:00,84.7,75.5,30.01,WSW,251,3.0,6.0,74,0.00,,CLR,0.03,VWS V14.01,2013-09-10 16:52:00,
2013-09-10 12:57:00,85.2,75.2,30.01,SSW,210,3.0,6.0,72,0.00,,CLR,0.03,VWS V14.01,2013-09-10 16:57:00,
2013-09-10 13:00:00,85.4,75.8,30.00,WSW,246,3.0,6.0,73,0.00,,CLR,0.03,VWS V14.01,2013-09-10 17:00:00,
2013-09-10 13:03:00,85.4,75.8,30.00,SW,222,4.0,6.0,73,0.00,,CLR,0.03,VWS V14.01,2013-09-10 17:03:00,
2013-09-10 13:08:00,85.6,75.5,30.00,SSW,208,3.0,4.0,72,0.00,,CLR,0.03,VWS V14.01,2013-09-10 17:08:00,
2013-09-10 13:13:00,85.9,75.8,30.00,SW,219,4.0,4.0,72,0.00,,CLR,0.03,VWS V14.01,2013-09-10 17:13:00,
2013-09-10 13:18:00,85.7,75.6,30.00,SW,229,3.0,5.0,72,0.00,,CLR,0.03,VWS V14.01,2013-09-10 17:18:00,
2013-09-10 13:23:00,86.0,75.9,30.00,West,274,0.0,5.0,72,0.00,,CLR,0.03,VWS V14.01,2013-09-10 17:23:00,
2013-09-10 13:28:00,86.2,75.3,30.00,West,276,3.0,5.0,70,0.00,,CLR,0.03,VWS V14.01,2013-09-10 17:28:00,
2013-09-10 13:30:00,86.2,75.7,30.00,West,276,2.0,6.0,71,0.00,,CLR,0.03,VWS V14.01,2013-09-10 17:30:00,
2013-09-10 13:33:00,86.2,75.7,30.00,West,277,5.0,5.0,71,0.00,,CLR,0.03,VWS V14.01,2013-09-10 17:33:00,
2013-09-10 13:38:00,86.5,76.4,30.00,WSW,242,1.0,5.0,72,0.00,,CLR,0.03,VWS V14.01,2013-09-10 17:38:00,
2013-09-10 13:43:00,86.8,75.8,30.00,West,278,3.0,6.0,70,0.00,,CLR,0.03,VWS V14.01,2013-09-10 17:43:00,
2013-09-10 13:48:00,86.9,75.5,30.00,WSW,255,6.0,8.0,69,0.00,,CLR,0.03,VWS V14.01,2013-09-10 17:48:00,
2013-09-10 13:53:00,87.0,75.6,30.00,SW,233,3.0,8.0,69,0.00,,CLR,0.03,VWS V14.01,2013-09-10 17:53:00,
2013-09-10 13:58:00,87.3,75.4,30.00,WSW,248,3.0,8.0,68,0.00,,CLR,0.03,VWS V14.01,2013-09-10 17:58:00,
2013-09-10 14:00:00,87.5,75.6,30.00,WSW,245,3.0,8.0,68,0.00,,CLR,0.03,VWS V14.01,2013-09-10 18:00:00,
2013-09-10 14:04:00,87.5,75.2,30.00,West,271,3.0,7.0,67,0.00,,CLR,0.03,VWS V14.01,2013-09-10 18:04:00,
2013-09-10 14:09:00,87.7,74.9,30.00,WSW,238,6.0,7.0,66,0.00,,CLR,0.03,VWS V14.01,2013-09-10 18:09:00,
2013-09-10 14:14:00,87.7,75.4,30.00,WSW,243,4.0,8.0,67,0.00,,CLR,0.03,VWS V14.01,2013-09-10 18:14:00,
2013-09-10 14:19:00,87.9,74.7,30.00,WSW,249,3.0,8.0,65,0.00,,CLR,0.03,VWS V14.01,2013-09-10 18:19:00,
2013-09-10 14:24:00,88.0,75.2,30.00,West,259,2.0,8.0,66,0.00,,CLR,0.03,VWS V14.01,2013-09-10 18:24:00,
2013-09-10 14:29:00,88.2,75.4,30.00,WSW,256,1.0,8.0,66,0.00,,CLR,0.03,VWS V14.01,2013-09-10 18:29:00,
2013-09-10 14:30:00,88.2,75.0,30.00,WSW,253,5.0,8.0,65,0.00,,CLR,0.03,VWS V14.01,2013-09-10 18:30:00,
2013-09-10 14:34:00,88.2,75.0,30.00,WSW,246,4.0,6.0,65,0.00,,CLR,0.03,VWS V14.01,2013-09-10 18:34:00,
2013-09-10 14:39:00,88.3,75.1,30.00,West,278,3.0,6.0,65,0.00,,CLR,0.03,VWS V14.01,2013-09-10 18:39:00,
2013-09-10 14:44:00,88.4,75.6,30.00,WSW,247,5.0,6.0,66,0.00,,CLR,0.03,VWS V14.01,2013-09-10 18:44:00,
2013-09-10 14:49:00,88.5,75.2,30.00,WSW,248,5.0,6.0,65,0.00,,CLR,0.03,VWS V14.01,2013-09-10 18:49:00,
2013-09-10 14:54:00,88.3,74.6,30.00,WSW,253,4.0,7.0,64,0.00,,CLR,0.03,VWS V14.01,2013-09-10 18:54:00,
2013-09-10 15:00:00,88.5,75.7,30.00,West,278,4.0,7.0,66,0.00,,CLR,0.03,VWS V14.01,2013-09-10 19:00:00,
2013-09-10 15:05:00,88.6,74.9,30.00,WSW,243,3.0,6.0,64,0.00,,CLR,0.03,VWS V14.01,2013-09-10 19:05:00,
2013-09-10 15:10:00,88.6,74.9,30.00,WSW,250,3.0,7.0,64,0.00,,CLR,0.03,VWS V14.01,2013-09-10 19:10:00,
2013-09-10 15:15:00,88.6,75.8,30.00,SW,235,4.0,7.0,66,0.00,,CLR,0.03,VWS V14.01,2013-09-10 19:15:00,
2013-09-10 15:20:00,88.7,75.4,30.00,SW,236,3.0,7.0,65,0.00,,CLR,0.03,VWS V14.01,2013-09-10 19:20:00,
2013-09-10 15:25:00,88.8,76.4,30.00,West,271,1.0,7.0,67,0.00,,CLR,0.03,VWS V14.01,2013-09-10 19:25:00,
2013-09-10 15:30:00,88.9,75.6,30.00,WSW,250,2.0,8.0,65,0.00,,CLR,0.03,VWS V14.01,2013-09-10 19:30:00,
2013-09-10 15:35:00,88.9,76.1,30.00,WSW,253,3.0,3.0,66,0.00,,CLR,0.03,VWS V14.01,2013-09-10 19:35:00,
2013-09-10 15:40:00,88.8,76.0,30.00,West,270,2.0,6.0,66,0.00,,CLR,0.03,VWS V14.01,2013-09-10 19:40:00,
2013-09-10 15:45:00,88.9,75.6,30.00,West,266,2.0,6.0,65,0.00,,CLR,0.03,VWS V14.01,2013-09-10 19:45:00,
2013-09-10 15:50:00,88.9,75.2,30.00,WSW,251,3.0,6.0,64,0.00,,CLR,0.03,VWS V14.01,2013-09-10 19:50:00,
2013-09-10 15:56:00,89.1,75.8,30.00,West,264,2.0,6.0,65,0.00,,CLR,0.03,VWS V14.01,2013-09-10 19:56:00,
2013-09-10 16:00:00,89.0,75.7,30.00,West,276,2.0,6.0,65,0.00,,CLR,0.03,VWS V14.01,2013-09-10 20:00:00,
2013-09-10 16:01:00,89.0,76.2,30.00,WSW,238,2.0,6.0,66,0.00,,CLR,0.03,VWS V14.01,2013-09-10 20:01:00,
2013-09-10 16:06:00,89.1,75.3,30.00,West,262,4.0,5.0,64,0.00,,CLR,0.03,VWS V14.01,2013-09-10 20:06:00,
2013-09-10 16:11:00,89.0,75.7,30.00,WSW,250,4.0,7.0,65,0.00,,CLR,0.03,VWS V14.01,2013-09-10 20:11:00,
2013-09-10 16:16:00,88.9,76.5,30.00,WNW,284,2.0,7.0,67,0.00,,CLR,0.03,VWS V14.01,2013-09-10 20:16:00,
2013-09-10 16:21:00,89.0,76.2,30.00,West,263,5.0,7.0,66,0.00,,CLR,0.03,VWS V14.01,2013-09-10 20:21:00,
2013-09-10 16:26:00,89.0,76.2,30.00,West,260,1.0,7.0,66,0.00,,CLR,0.03,VWS V14.01,2013-09-10 20:26:00,
2013-09-10 16:30:00,88.8,75.5,30.00,West,263,1.0,7.0,65,0.00,,CLR,0.03,VWS V14.01,2013-09-10 20:30:00,
2013-09-10 16:31:00,88.8,75.5,30.00,WSW,243,5.0,7.0,65,0.00,,CLR,0.03,VWS V14.01,2013-09-10 20:31:00,
2013-09-10 16:36:00,88.8,75.5,30.00,WSW,245,3.0,4.0,65,0.00,,CLR,0.03,VWS V14.01,2013-09-10 20:36:00,
2013-09-10 16:41:00,88.7,75.9,30.00,WSW,253,1.0,4.0,66,0.00,,CLR,0.03,VWS V14.01,2013-09-10 20:41:00,
2013-09-10 16:46:00,88.7,75.9,30.00,West,266,0.0,4.0,66,0.00,,CLR,0.03,VWS V14.01,2013-09-10 20:46:00,
2013-09-10 16:52:00,88.9,76.5,30.00,WSW,243,4.0,4.0,67,0.00,,CLR,0.03,VWS V14.01,2013-09-10 20:52:00,
2013-09-10 16:57:00,88.8,76.4,30.00,WNW,282,2.0,5.0,67,0.00,,CLR,0.03,VWS V14.01,2013-09-10 20:57:00,
2013-09-10 17:00:00,88.6,75.8,30.00,WSW,242,4.0,5.0,66,0.00,,CLR,0.03,VWS V14.01,2013-09-10 21:00:00,
2013-09-10 17:02:00,88.6,75.8,30.00,WSW,242,4.0,5.0,66,0.00,,CLR,0.03,VWS V14.01,2013-09-10 21:02:00,
2013-09-10 17:07:00,88.4,76.1,30.00,WSW,256,3.0,4.0,67,0.00,,CLR,0.03,VWS V14.01,2013-09-10 21:07:00,
2013-09-10 17:12:00,88.4,76.5,30.00,WSW,258,3.0,4.0,68,0.00,,CLR,0.03,VWS V14.01,2013-09-10 21:12:00,
2013-09-10 17:17:00,88.3,77.3,30.00,West,271,1.0,4.0,70,0.00,,CLR,0.03,VWS V14.01,2013-09-10 21:17:00,
2013-09-10 17:22:00,88.2,75.9,30.00,WNW,285,3.0,5.0,67,0.00,,CLR,0.03,VWS V14.01,2013-09-10 21:22:00,
2013-09-10 17:27:00,88.0,75.2,30.00,WSW,238,3.0,5.0,66,0.00,,CLR,0.03,VWS V14.01,2013-09-10 21:27:00,
2013-09-10 17:30:00,87.9,75.1,30.00,West,264,3.0,5.0,66,0.00,,CLR,0.03,VWS V14.01,2013-09-10 21:30:00,
2013-09-10 17:32:00,87.9,75.1,30.00,West,263,3.0,5.0,66,0.00,,CLR,0.03,VWS V14.01,2013-09-10 21:32:00,
2013-09-10 17:37:00,87.8,75.0,30.00,WSW,257,2.0,3.0,66,0.00,,CLR,0.03,VWS V14.01,2013-09-10 21:37:00,
2013-09-10 17:43:00,87.7,75.4,30.00,West,264,0.0,3.0,67,0.00,,CLR,0.03,VWS V14.01,2013-09-10 21:43:00,
2013-09-10 17:48:00,87.3,76.3,30.00,West,264,1.0,3.0,70,0.00,,CLR,0.03,VWS V14.01,2013-09-10 21:48:00,
2013-09-10 17:53:00,87.2,75.4,30.00,West,271,4.0,5.0,68,0.00,,CLR,0.03,VWS V14.01,2013-09-10 21:53:00,
2013-09-10 17:58:00,87.1,74.8,30.01,West,272,3.0,7.0,67,0.00,,CLR,0.03,VWS V14.01,2013-09-10 21:58:00,
2013-09-10 18:00:00,86.9,74.6,30.01,West,273,3.0,7.0,67,0.00,,CLR,0.03,VWS V14.01,2013-09-10 22:00:00,
2013-09-10 18:03:00,86.8,74.5,30.01,West,278,3.0,4.0,67,0.00,,CLR,0.03,VWS V14.01,2013-09-10 22:03:00,
2013-09-10 18:08:00,86.8,74.5,30.01,WSW,256,2.0,4.0,67,0.00,,CLR,0.03,VWS V14.01,2013-09-10 22:08:00,
2013-09-10 18:13:00,86.5,74.2,30.01,West,270,1.0,4.0,67,0.00,,CLR,0.03,VWS V14.01,2013-09-10 22:13:00,
2013-09-10 18:18:00,86.3,74.1,30.01,West,271,1.0,4.0,67,0.00,,CLR,0.03,VWS V14.01,2013-09-10 22:18:00,
2013-09-10 18:23:00,86.0,74.7,30.01,West,273,0.0,4.0,69,0.00,,CLR,0.03,VWS V14.01,2013-09-10 22:23:00,
2013-09-10 18:28:00,85.7,74.8,30.01,WNW,288,0.0,4.0,70,0.00,,CLR,0.03,VWS V14.01,2013-09-10 22:28:00,
2013-09-10 18:30:00,85.2,74.7,30.01,WNW,283,0.0,4.0,71,0.00,,CLR,0.03,VWS V14.01,2013-09-10 22:30:00,
2013-09-10 18:33:00,85.1,75.1,30.01,West,259,0.0,1.0,72,0.00,,CLR,0.03,VWS V14.01,2013-09-10 22:33:00,
2013-09-10 18:39:00,84.7,74.7,30.01,WNW,283,0.0,3.0,72,0.00,,CLR,0.03,VWS V14.01,2013-09-10 22:39:00,
2013-09-10 18:44:00,84.6,75.0,30.01,West,271,2.0,3.0,73,0.00,,CLR,0.03,VWS V14.01,2013-09-10 22:44:00,
2013-09-10 18:49:00,84.6,75.0,30.01,West,274,1.0,3.0,73,0.00,,CLR,0.03,VWS V14.01,2013-09-10 22:49:00,
2013-09-10 18:54:00,84.4,74.8,30.01,West,266,1.0,3.0,73,0.00,,CLR,0.03,VWS V14.01,2013-09-10 22:54:00,
2013-09-10 18:59:00,84.1,74.5,30.01,West,271,2.0,3.0,73,0.00,,CLR,0.03,VWS V14.01,2013-09-10 22:59:00,
2013-09-10 19:00:00,84.0,74.4,30.01,West,281,1.0,3.0,73,0.00,,CLR,0.03,VWS V14.01,2013-09-10 23:00:00,
2013-09-10 19:04:00,83.9,74.3,30.02,WSW,258,1.0,2.0,73,0.00,,CLR,0.03,VWS V14.01,2013-09-10 23:04:00,
2013-09-10 19:09:00,83.8,74.6,30.01,West,264,2.0,2.0,74,0.00,,CLR,0.03,VWS V14.01,2013-09-10 23:09:00,
2013-09-10 19:14:00,83.6,74.4,30.01,West,263,2.0,3.0,74,0.00,,CLR,0.03,VWS V14.01,2013-09-10 23:14:00,
2013-09-10 19:19:00,83.4,74.2,30.01,West,262,1.0,3.0,74,0.00,,CLR,0.03,VWS V14.01,2013-09-10 23:19:00,
2013-09-10 19:24:00,83.2,74.5,30.01,West,274,2.0,3.0,75,0.00,,CLR,0.03,VWS V14.01,2013-09-10 23:24:00,
2013-09-10 19:30:00,83.1,74.4,30.02,West,266,1.0,3.0,75,0.00,,CLR,0.03,VWS V14.01,2013-09-10 23:30:00,
2013-09-10 19:35:00,82.9,74.2,30.02,West,268,1.0,1.0,75,0.00,,CLR,0.03,VWS V14.01,2013-09-10 23:35:00,
2013-09-10 19:40:00,82.7,74.4,30.02,West,260,1.0,2.0,76,0.00,,CLR,0.03,VWS V14.01,2013-09-10 23:40:00,
2013-09-10 19:45:00,82.5,74.2,30.02,West,274,1.0,2.0,76,0.00,,CLR,0.03,VWS V14.01,2013-09-10 23:45:00,
2013-09-10 19:50:00,82.2,74.3,30.02,West,267,1.0,2.0,77,0.00,,CLR,0.03,VWS V14.01,2013-09-10 23:50:00,
2013-09-10 19:55:00,82.0,74.1,30.02,West,269,1.0,2.0,77,0.00,,CLR,0.03,VWS V14.01,2013-09-10 23:55:00,
2013-09-10 20:00:00,81.8,74.3,30.03,West,264,1.0,2.0,78,0.00,,CLR,0.03,VWS V14.01,2013-09-11 00:00:00,
2013-09-10 20:05:00,81.6,74.1,30.03,West,270,1.0,2.0,78,0.00,,CLR,0.03,VWS V14.01,2013-09-11 00:05:00,
2013-09-10 20:10:00,81.4,74.3,30.03,West,265,1.0,2.0,79,0.00,,CLR,0.03,VWS V14.01,2013-09-11 00:10:00,
2013-09-10 20:15:00,81.3,74.2,30.03,West,274,0.0,2.0,79,0.00,,CLR,0.03,VWS V14.01,2013-09-11 00:15:00,
2013-09-10 20:20:00,81.1,74.0,30.03,West,276,0.0,2.0,79,0.00,,CLR,0.03,VWS V14.01,2013-09-11 00:20:00,
2013-09-10 20:26:00,80.8,74.1,30.03,West,275,0.0,2.0,80,0.00,,CLR,0.03,VWS V14.01,2013-09-11 00:26:00,
2013-09-10 20:30:00,80.3,73.9,30.04,West,273,0.0,2.0,81,0.00,,CLR,0.03,VWS V14.01,2013-09-11 00:30:00,
2013-09-10 20:31:00,80.4,74.0,30.03,West,271,0.0,2.0,81,0.00,,CLR,0.03,VWS V14.01,2013-09-11 00:31:00,
2013-09-10 20:36:00,80.3,73.9,30.04,West,277,0.0,0.0,81,0.00,,CLR,0.03,VWS V14.01,2013-09-11 00:36:00,
2013-09-10 20:41:00,80.2,73.8,30.04,West,259,0.0,0.0,81,0.00,,CLR,0.03,VWS V14.01,2013-09-11 00:41:00,
2013-09-10 20:46:00,80.2,73.8,30.04,West,264,0.0,0.0,81,0.00,,CLR,0.03,VWS V14.01,2013-09-11 00:46:00,
2013-09-10 20:51:00,80.2,73.8,30.04,West,274,0.0,0.0,81,0.00,,CLR,0.03,VWS V14.01,2013-09-11 00:51:00,
2013-09-10 20:57:00,80.1,73.8,30.04,West,274,0.0,0.0,81,0.00,,CLR,0.03,VWS V14.01,2013-09-11 00:57:00,
2013-09-10 21:00:00,79.8,73.8,30.05,West,269,0.0,1.0,82,0.00,,OVC,0.03,VWS V14.01,2013-09-11 01:00:00,
2013-09-10 21:02:00,79.8,73.8,30.04,West,271,1.0,1.0,82,0.00,,CLR,0.03,VWS V14.01,2013-09-11 01:02:00,
2013-09-10 21:07:00,79.8,73.8,30.05,West,273,0.0,1.0,82,0.00,,CLR,0.03,VWS V14.01,2013-09-11 01:07:00,
2013-09-10 21:12:00,79.8,73.8,30.05,West,264,1.0,1.0,82,0.00,,CLR,0.03,VWS V14.01,2013-09-11 01:12:00,
2013-09-10 21:17:00,79.6,74.0,30.05,West,263,1.0,2.0,83,0.00,,CLR,0.03,VWS V14.01,2013-09-11 01:17:00,
2013-09-10 21:22:00,79.3,73.7,30.05,West,270,1.0,2.0,83,0.00,,CLR,0.03,VWS V14.01,2013-09-11 01:22:00,
2013-09-10 21:27:00,79.2,73.9,30.05,West,267,1.0,2.0,84,0.00,,CLR,0.03,VWS V14.01,2013-09-11 01:27:00,
2013-09-10 21:30:00,79.0,73.8,30.05,West,263,1.0,2.0,84,0.00,,OVC,0.03,VWS V14.01,2013-09-11 01:30:00,
2013-09-10 21:32:00,79.0,73.8,30.05,West,267,1.0,2.0,84,0.00,,CLR,0.03,VWS V14.01,2013-09-11 01:32:00,
2013-09-10 21:38:00,79.0,73.8,30.05,West,271,1.0,1.0,84,0.00,,CLR,0.03,VWS V14.01,2013-09-11 01:38:00,
2013-09-10 21:43:00,79.0,73.8,30.06,West,276,2.0,2.0,84,0.00,,CLR,0.03,VWS V14.01,2013-09-11 01:43:00,
2013-09-10 21:48:00,79.2,73.9,30.06,WSW,255,1.0,2.0,84,0.00,,CLR,0.03,VWS V14.01,2013-09-11 01:48:00,
2013-09-10 21:53:00,79.4,73.8,30.06,WSW,257,1.0,2.0,83,0.00,,CLR,0.03,VWS V14.01,2013-09-11 01:53:00,
2013-09-10 21:58:00,79.4,73.8,30.06,WSW,257,1.0,2.0,83,0.00,,CLR,0.03,VWS V14.01,2013-09-11 01:58:00,
2013-09-10 22:00:00,79.4,73.8,30.06,West,271,1.0,2.0,83,0.00,,OVC,0.03,VWS V14.01,2013-09-11 02:00:00,
2013-09-10 22:03:00,79.3,73.7,30.06,West,276,2.0,2.0,83,0.00,,CLR,0.03,VWS V14.01,2013-09-11 02:03:00,
2013-09-10 22:08:00,79.4,73.8,30.06,WSW,253,1.0,2.0,83,0.00,,CLR,0.03,VWS V14.01,2013-09-11 02:08:00,
2013-09-10 22:13:00,79.3,73.7,30.06,West,281,0.0,2.0,83,0.00,,CLR,0.03,VWS V14.01,2013-09-11 02:13:00,
2013-09-10 22:18:00,79.3,73.7,30.06,West,269,1.0,2.0,83,0.00,,CLR,0.03,VWS V14.01,2013-09-11 02:18:00,
2013-09-10 22:23:00,79.4,73.8,30.06,West,266,1.0,2.0,83,0.00,,CLR,0.03,VWS V14.01,2013-09-11 02:23:00,
2013-09-10 22:28:00,79.5,73.9,30.06,West,273,1.0,2.0,83,0.00,,CLR,0.03,VWS V14.01,2013-09-11 02:28:00,
2013-09-10 22:30:00,79.5,73.9,30.06,West,267,1.0,2.0,83,0.00,,OVC,0.03,VWS V14.01,2013-09-11 02:30:00,
2013-09-10 22:33:00,79.5,73.9,30.06,West,269,1.0,1.0,83,0.00,,CLR,0.03,VWS V14.01,2013-09-11 02:33:00,
2013-09-10 22:39:00,79.4,73.8,30.07,West,276,1.0,1.0,83,0.00,,CLR,0.03,VWS V14.01,2013-09-11 02:39:00,
2013-09-10 22:44:00,79.4,73.8,30.07,West,267,1.0,1.0,83,0.00,,CLR,0.03,VWS V14.01,2013-09-11 02:44:00,
2013-09-10 22:49:00,79.5,73.9,30.07,West,276,0.0,2.0,83,0.00,,CLR,0.03,VWS V14.01,2013-09-11 02:49:00,
2013-09-10 22:54:00,79.4,73.8,30.07,West,266,0.0,2.0,83,0.00,,CLR,0.03,VWS V14.01,2013-09-11 02:54:00,
2013-09-10 22:59:00,79.2,73.6,30.07,WSW,258,1.0,2.0,83,0.00,,CLR,0.03,VWS V14.01,2013-09-11 02:59:00,
2013-09-10 23:00:00,79.1,73.8,30.06,West,274,0.0,2.0,84,0.00,,OVC,0.03,VWS V14.01,2013-09-11 03:00:00,
2013-09-10 23:04:00,79.1,73.8,30.06,WNW,285,1.0,1.0,84,0.00,,CLR,0.03,VWS V14.01,2013-09-11 03:04:00,
2013-09-10 23:10:00,79.0,73.8,30.07,West,274,1.0,2.0,84,0.00,,CLR,0.03,VWS V14.01,2013-09-11 03:10:00,
2013-09-10 23:15:00,78.9,73.7,30.07,West,275,1.0,2.0,84,0.00,,CLR,0.03,VWS V14.01,2013-09-11 03:15:00,
2013-09-10 23:20:00,78.8,73.6,30.07,West,260,1.0,2.0,84,0.00,,CLR,0.03,VWS V14.01,2013-09-11 03:20:00,
2013-09-10 23:25:00,78.8,73.6,30.07,West,266,2.0,2.0,84,0.00,,CLR,0.03,VWS V14.01,2013-09-11 03:25:00,
2013-09-10 23:30:00,78.8,73.6,30.07,West,277,1.0,2.0,84,0.00,,CLR,0.03,VWS V14.01,2013-09-11 03:30:00,
2013-09-10 23:35:00,78.7,73.5,30.07,West,266,2.0,3.0,84,0.00,,CLR,0.03,VWS V14.01,2013-09-11 03:35:00,
2013-09-10 23:40:00,78.7,73.8,30.06,West,270,1.0,3.0,85,0.00,,CLR,0.03,VWS V14.01,2013-09-11 03:40:00,
2013-09-10 23:45:00,78.7,73.5,30.06,West,276,1.0,3.0,84,0.00,,CLR,0.03,VWS V14.01,2013-09-11 03:45:00,
2013-09-10 23:50:00,78.7,73.5,30.06,West,275,1.0,3.0,84,0.00,,CLR,0.03,VWS V14.01,2013-09-11 03:50:00,
2013-09-10 23:55:00,78.8,73.6,30.06,WSW,256,2.0,3.0,84,0.00,,CLR,0.03,VWS V14.01,2013-09-11 03:55:00,